Time;durP1;ratioP1;P1;durP2;ratioP2;P2;SDS_P1;SDS_P2;PMS_P1;PMS_P2;Temp;Humidity;BMP_temperature;BMP_pressure;BME280_temperature;BME280_humidity;BME280_pressure;Samples;Min_cycle;Max_cycle;Signal;HPM_P1;HPM_P2
2023/06/12 00:01:40;;;;;;;14.60;5.50;;;;;;;15.88;51.20;100658.41;103297;1258;98254;-73
2023/06/12 00:04:08;;;;;;;10.90;5.30;;;;;;;15.85;51.15;100661.34;103391;1254;111405;-74
2023/06/12 00:06:39;;;;;;;15.60;5.50;;;;;;;15.82;51.13;100658.87;103401;1254;107808;-75
2023/06/12 00:09:11;;;;;;;10.80;5.60;;;;;;;15.78;51.12;100662.04;103208;1254;137926;-74
2023/06/12 00:11:40;;;;;;;11.30;5.30;;;;;;;15.75;51.18;100658.13;103611;1257;109595;-75
2023/06/12 00:14:08;;;;;;;12.80;5.40;;;;;;;15.74;50.90;100661.36;103518;1254;138303;-75
2023/06/12 00:16:37;;;;;;;10.80;5.10;;;;;;;15.72;50.57;100658.61;103736;1256;110921;-75
2023/06/12 00:19:05;;;;;;;16.00;5.60;;;;;;;15.69;50.49;100657.01;103275;1258;107125;-74
2023/06/12 00:21:32;;;;;;;10.70;5.20;;;;;;;15.66;50.23;100660.83;103467;1257;138068;-75
2023/06/12 00:24:00;;;;;;;10.10;5.30;;;;;;;15.63;50.12;100656.25;103279;1254;108623;-73
2023/06/12 00:26:28;;;;;;;9.70;5.20;;;;;;;15.59;49.99;100653.95;103075;1254;138043;-74
2023/06/12 00:28:55;;;;;;;18.40;5.30;;;;;;;15.57;49.85;100653.15;103332;1254;112210;-75
2023/06/12 00:31:23;;;;;;;12.30;5.10;;;;;;;15.55;49.79;100653.08;103821;1255;108201;-74
2023/06/12 00:33:51;;;;;;;8.70;5.00;;;;;;;15.53;49.63;100652.48;103082;1254;138299;-76
2023/06/12 00:36:18;;;;;;;12.60;5.30;;;;;;;15.49;49.50;100654.76;104769;1253;108053;-74
2023/06/12 00:38:46;;;;;;;11.50;5.20;;;;;;;15.45;49.36;100659.69;103395;1254;138033;-74
2023/06/12 00:41:15;;;;;;;8.30;4.30;;;;;;;15.42;49.27;100658.05;104695;1254;110738;-73
2023/06/12 00:43:42;;;;;;;8.60;4.70;;;;;;;15.40;49.01;100659.69;104275;1254;138081;-73
2023/06/12 00:46:10;;;;;;;10.10;4.50;;;;;;;15.37;48.75;100661.09;104667;1254;96109;-74
2023/06/12 00:48:39;;;;;;;7.50;4.10;;;;;;;15.35;48.52;100659.80;103379;1254;107701;-73
2023/06/12 00:51:08;;;;;;;9.00;4.90;;;;;;;15.32;48.50;100658.69;103167;1254;137844;-73
2023/06/12 00:53:36;;;;;;;8.80;4.40;;;;;;;15.27;48.32;100659.30;104171;1254;111512;-74
2023/06/12 00:56:03;;;;;;;9.20;4.20;;;;;;;15.24;48.14;100659.77;104390;1254;138599;-74
2023/06/12 00:58:30;;;;;;;6.60;4.50;;;;;;;15.20;48.12;100660.31;103560;1255;97660;-73
2023/06/12 01:00:58;;;;;;;10.50;4.40;;;;;;;15.14;48.10;100660.55;103302;1254;108512;-73
2023/06/12 01:03:26;;;;;;;10.40;4.80;;;;;;;15.09;48.09;100657.98;103408;1254;138102;-75
2023/06/12 01:05:55;;;;;;;7.70;4.80;;;;;;;15.06;48.08;100659.13;103322;1254;111956;-75
2023/06/12 01:08:34;;;;;;;10.70;4.80;;;;;;;15.04;48.19;100656.96;103166;1257;137961;-74
2023/06/12 01:11:07;;;;;;;10.90;4.40;;;;;;;15.01;48.05;100663.42;104159;1254;96644;-74
2023/06/12 01:13:36;;;;;;;12.60;4.80;;;;;;;14.96;48.09;100660.83;103382;1255;108165;-73
2023/06/12 01:16:04;;;;;;;12.50;4.80;;;;;;;14.91;48.05;100661.07;104552;1254;95868;-73
2023/06/12 01:18:32;;;;;;;7.50;4.60;;;;;;;14.87;48.01;100659.63;104335;1254;111335;-74
2023/06/12 01:21:04;;;;;;;10.20;4.50;;;;;;;14.84;47.90;100659.61;103888;1254;137763;-74
2023/06/12 01:23:52;;;;;;;8.30;4.90;;;;;;;14.81;47.90;100657.46;103316;1257;98356;-73
2023/06/12 01:26:54;;;;;;;7.90;4.40;;;;;;;14.77;47.91;100657.63;104430;1254;137745;-73
2023/06/12 01:29:54;;;;;;;9.10;4.10;;;;;;;14.73;47.65;100661.11;103103;1259;97711;-74
2023/06/12 01:32:24;;;;;;;6.70;4.50;;;;;;;14.69;47.69;100665.81;103804;1254;137895;-74
2023/06/12 01:34:57;;;;;;;8.90;4.30;;;;;;;14.67;47.58;100665.75;104381;1254;108771;-73
2023/06/12 01:37:33;;;;;;;6.40;3.70;;;;;;;14.66;47.57;100668.95;104492;1254;95825;-74
2023/06/12 01:40:08;;;;;;;8.30;4.10;;;;;;;14.65;47.37;100667.95;104226;1257;107020;-74
2023/06/12 01:42:36;;;;;;;8.80;3.90;;;;;;;14.62;47.21;100664.59;104654;1254;95886;-75
2023/06/12 01:45:04;;;;;;;6.60;3.80;;;;;;;14.61;47.08;100664.09;103922;1254;138017;-75
2023/06/12 01:47:31;;;;;;;9.60;3.70;;;;;;;14.60;46.99;100665.20;104273;1254;107273;-74
2023/06/12 01:49:59;;;;;;;7.70;3.90;;;;;;;14.59;47.08;100662.09;103708;1253;138038;-75
2023/06/12 01:52:27;;;;;;;5.50;3.60;;;;;;;14.58;47.03;100666.32;103491;1254;107129;-75
2023/06/12 01:54:57;;;;;;;5.30;3.70;;;;;;;14.57;46.83;100664.10;104097;1254;96897;-75
2023/06/12 01:57:27;;;;;;;10.30;4.10;;;;;;;14.55;46.87;100668.39;103782;1254;138183;-74
2023/06/12 01:59:55;;;;;;;12.10;4.10;;;;;;;14.52;46.99;100669.70;104195;1254;108826;-73
2023/06/12 02:02:22;;;;;;;6.30;4.10;;;;;;;14.48;46.97;100670.21;104323;1259;138150;-73
2023/06/12 02:04:50;;;;;;;7.90;3.90;;;;;;;14.45;46.99;100670.86;103843;1260;106958;-74
2023/06/12 02:07:18;;;;;;;7.20;3.40;;;;;;;14.42;46.94;100669.91;103518;1255;97798;-74
2023/06/12 02:09:47;;;;;;;14.50;3.70;;;;;;;14.41;46.79;100672.59;102977;1259;137692;-75
2023/06/12 02:12:15;;;;;;;8.90;4.10;;;;;;;14.38;46.76;100673.23;103062;1256;108044;-74
2023/06/12 02:14:43;;;;;;;7.70;3.50;;;;;;;14.37;46.77;100676.98;102906;1254;138066;-74
2023/06/12 02:17:13;;;;;;;8.60;3.40;;;;;;;14.36;46.65;100678.39;104510;1258;109154;-74
2023/06/12 02:19:42;;;;;;;6.20;3.50;;;;;;;14.32;46.68;100677.81;104365;1254;137884;-70
2023/06/12 02:22:11;;;;;;;6.10;3.80;;;;;;;14.31;46.85;100679.11;104462;1257;111794;-74
2023/06/12 02:24:39;;;;;;;7.30;3.40;;;;;;;14.30;46.74;100680.55;103062;1259;107759;-73
2023/06/12 02:27:07;;;;;;;6.50;3.40;;;;;;;14.28;46.73;100681.19;103945;1254;139129;-75
2023/06/12 02:29:35;;;;;;;7.40;3.70;;;;;;;14.26;46.82;100683.67;103319;1254;107433;-74
2023/06/12 02:32:15;;;;;;;7.30;3.20;;;;;;;14.25;46.69;100685.33;103006;1259;138076;-74
2023/06/12 02:34:54;;;;;;;10.30;3.60;;;;;;;14.23;46.83;100682.42;104482;1257;110860;-75
2023/06/12 02:37:23;;;;;;;6.20;3.40;;;;;;;14.21;46.74;100678.84;103802;1259;108821;-75
2023/06/12 02:39:53;;;;;;;9.30;4.00;;;;;;;14.20;46.78;100688.84;103035;1257;137878;-75
2023/06/12 02:42:20;;;;;;;12.80;3.80;;;;;;;14.19;46.75;100685.20;103509;1254;106881;-75
2023/06/12 02:44:47;;;;;;;8.10;3.60;;;;;;;14.17;46.61;100684.59;103006;1254;138040;-73
2023/06/12 02:47:16;;;;;;;8.10;3.60;;;;;;;14.13;46.66;100689.64;103225;1254;112376;-75
2023/06/12 02:49:45;;;;;;;6.60;3.80;;;;;;;14.12;47.00;100695.08;103070;1260;138014;-74
2023/06/12 02:52:17;;;;;;;12.80;4.40;;;;;;;14.13;46.92;100693.66;103252;1254;98006;-75
2023/06/12 02:54:45;;;;;;;7.30;4.10;;;;;;;14.11;47.04;100694.97;103286;1259;107701;-75
2023/06/12 02:57:12;;;;;;;7.30;4.50;;;;;;;14.10;47.14;100693.09;102970;1254;138109;-75
2023/06/12 02:59:39;;;;;;;8.40;5.00;;;;;;;14.11;47.28;100698.30;103217;1257;111869;-75
2023/06/12 03:02:11;;;;;;;12.60;7.20;;;;;;;14.13;47.60;100695.23;102976;1257;138068;-75
2023/06/12 03:04:47;;;;;;;13.80;7.20;;;;;;;14.12;47.62;100695.28;104397;1256;95783;-75
2023/06/12 03:07:16;;;;;;;12.80;8.80;;;;;;;14.12;47.64;100695.98;103939;1256;107699;-75
2023/06/12 03:09:44;;;;;;;17.70;9.90;;;;;;;14.12;47.92;100692.98;104295;1256;137910;-74
2023/06/12 03:12:13;;;;;;;18.10;9.50;;;;;;;14.15;47.89;100691.12;103580;1257;111324;-75
2023/06/12 03:14:42;;;;;;;14.50;8.40;;;;;;;14.16;48.02;100693.55;103063;1256;138144;-74
2023/06/12 03:17:11;;;;;;;16.80;8.80;;;;;;;14.18;47.90;100699.92;103232;1256;98386;-74
2023/06/12 03:19:38;;;;;;;19.70;9.30;;;;;;;14.20;47.98;100701.11;103039;1260;108404;-73
2023/06/12 03:22:07;;;;;;;16.00;7.50;;;;;;;14.21;47.88;100700.88;103041;1256;97841;-73
2023/06/12 03:24:36;;;;;;;22.60;8.50;;;;;;;14.23;47.92;100702.69;103681;1257;111399;-74
2023/06/12 03:27:05;;;;;;;14.10;8.30;;;;;;;14.27;47.84;100701.69;103061;1256;138541;-74
2023/06/12 03:29:33;;;;;;;10.80;7.70;;;;;;;14.29;47.85;100706.13;103414;1260;97858;-74
2023/06/12 03:32:02;;;;;;;12.70;7.80;;;;;;;14.33;47.85;100713.48;103171;1256;138041;-74
2023/06/12 03:34:36;;;;;;;20.40;7.90;;;;;;;14.35;47.85;100717.95;103159;1257;97798;-74
2023/06/12 03:37:04;;;;;;;12.90;7.60;;;;;;;14.38;47.73;100715.21;103859;1255;111745;-74
2023/06/12 03:39:32;;;;;;;15.20;7.70;;;;;;;14.42;47.76;100715.76;103076;1256;137951;-74
2023/06/12 03:42:00;;;;;;;14.60;7.30;;;;;;;14.47;47.72;100718.88;103233;1256;97695;-74
2023/06/12 03:44:57;;;;;;;12.80;6.80;;;;;;;14.53;47.57;100716.57;102820;1260;137954;-74
2023/06/12 03:47:25;;;;;;;13.00;6.00;;;;;;;14.54;47.34;100713.90;103076;1256;96439;-74
2023/06/12 03:49:53;;;;;;;13.20;6.20;;;;;;;14.56;47.13;100714.55;104324;1256;137862;-74
2023/06/12 03:52:21;;;;;;;9.00;5.50;;;;;;;14.60;47.02;100720.14;103969;1256;108452;-74
2023/06/12 03:54:50;;;;;;;10.20;5.30;;;;;;;14.67;46.85;100720.02;103096;1255;96501;-73
2023/06/12 03:57:17;;;;;;;12.10;5.20;;;;;;;14.73;46.65;100724.14;103118;1260;137890;-73
2023/06/12 03:59:46;;;;;;;8.20;5.50;;;;;;;14.79;46.43;100719.67;103529;1256;98194;-74
2023/06/12 04:02:13;;;;;;;11.50;6.10;;;;;;;14.83;46.17;100713.37;103057;1256;138389;-74
2023/06/12 04:04:41;;;;;;;9.70;5.00;;;;;;;14.88;46.25;100713.34;104232;1256;107810;-74
2023/06/12 04:07:08;;;;;;;8.90;5.00;;;;;;;14.92;46.03;100713.88;104432;1255;96073;-75
2023/06/12 04:09:35;;;;;;;14.90;5.30;;;;;;;14.95;45.91;100712.70;103286;1256;137694;-76
2023/06/12 04:12:03;;;;;;;12.20;4.60;;;;;;;15.00;45.73;100717.40;103689;1255;96724;-75
2023/06/12 04:14:31;;;;;;;14.60;4.80;;;;;;;15.03;45.66;100717.75;103874;1254;138026;-75
2023/06/12 04:17:01;;;;;;;7.40;4.20;;;;;;;15.06;45.71;100717.10;103186;1256;107919;-75
2023/06/12 04:19:28;;;;;;;14.70;4.70;;;;;;;15.09;45.62;100715.06;104442;1257;95731;-76
2023/06/12 04:21:55;;;;;;;10.60;4.30;;;;;;;15.15;45.59;100717.45;103332;1257;137568;-75
2023/06/12 04:24:24;;;;;;;11.10;4.50;;;;;;;15.22;45.48;100718.70;103096;1260;97778;-75
2023/06/12 04:26:54;;;;;;;10.80;4.40;;;;;;;15.28;45.46;100717.55;103770;1255;137817;-74
2023/06/12 04:29:21;;;;;;;8.00;3.80;;;;;;;15.34;45.46;100721.33;103133;1256;108289;-75
2023/06/12 04:31:53;;;;;;;8.90;4.50;;;;;;;15.40;45.43;100713.36;103120;1260;138001;-74
2023/06/12 04:34:21;;;;;;;6.30;4.40;;;;;;;15.46;45.46;100713.60;103590;1256;107980;-73
2023/06/12 04:36:52;;;;;;;7.60;4.10;;;;;;;15.53;45.40;100711.73;103290;1256;97783;-75
2023/06/12 04:39:22;;;;;;;7.90;3.80;;;;;;;15.60;45.26;100713.67;102995;1256;138741;-73
2023/06/12 04:41:51;;;;;;;10.50;4.00;;;;;;;15.69;45.17;100717.87;102974;1256;108513;-74
2023/06/12 04:44:21;;;;;;;7.30;4.30;;;;;;;15.77;45.18;100721.52;104363;1256;138778;-75
2023/06/12 04:46:48;;;;;;;11.10;4.60;;;;;;;15.86;45.05;100720.21;104216;1256;107031;-74
2023/06/12 04:49:16;;;;;;;5.90;3.60;;;;;;;15.95;45.04;100724.70;103189;1260;97940;-74
2023/06/12 04:51:43;;;;;;;8.20;3.60;;;;;;;16.05;44.94;100727.42;102999;1256;137795;-72
2023/06/12 04:54:13;;;;;;;11.60;3.60;;;;;;;16.14;44.85;100727.70;103526;1256;107624;-76
2023/06/12 04:56:44;;;;;;;10.70;3.50;;;;;;;16.22;44.81;100729.20;104377;1255;141024;-75
2023/06/12 04:59:16;;;;;;;7.60;3.40;;;;;;;16.33;44.84;100727.80;104301;1260;107878;-74
2023/06/12 05:01:44;;;;;;;8.90;3.80;;;;;;;16.45;44.88;100723.05;103220;1260;137981;-74
2023/06/12 05:04:12;;;;;;;9.50;3.30;;;;;;;16.56;44.76;100724.91;103079;1256;111402;-74
2023/06/12 05:06:40;;;;;;;12.20;3.50;;;;;;;16.66;44.42;100725.13;103712;1256;107106;-65
2023/06/12 05:09:08;;;;;;;5.40;2.90;;;;;;;16.76;44.60;100729.20;103329;1256;138464;-73
2023/06/12 05:11:36;;;;;;;9.20;3.00;;;;;;;16.90;44.60;100721.67;104482;1255;108298;-77
2023/06/12 05:14:05;;;;;;;8.00;3.20;;;;;;;17.04;44.30;100719.91;104240;1256;138576;-80
2023/06/12 05:16:32;;;;;;;6.00;3.00;;;;;;;17.16;44.01;100719.96;104150;1255;112014;-78
2023/06/12 05:19:00;;;;;;;9.50;3.00;;;;;;;17.32;44.06;100719.70;103002;1254;107763;-80
2023/06/12 05:21:28;;;;;;;7.80;3.10;;;;;;;17.50;43.81;100714.15;103221;1256;138717;-76
2023/06/12 05:23:55;;;;;;;5.60;3.60;;;;;;;17.73;43.72;100713.65;103535;1256;107918;-76
2023/06/12 05:26:24;;;;;;;8.60;3.20;;;;;;;17.97;43.36;100710.16;102905;1256;137934;-76
2023/06/12 05:28:51;;;;;;;11.60;3.50;;;;;;;18.25;43.14;100709.71;103057;1256;110974;-76
2023/06/12 05:31:19;;;;;;;8.00;3.10;;;;;;;18.51;42.90;100709.23;103043;1256;106986;-77
2023/06/12 05:33:47;;;;;;;10.00;2.90;;;;;;;18.83;42.53;100708.66;102973;1255;137799;-78
2023/06/12 05:36:14;;;;;;;10.30;2.90;;;;;;;19.11;42.23;100706.80;102874;1256;107602;-75
2023/06/12 05:38:46;;;;;;;6.10;3.20;;;;;;;19.40;41.88;100705.20;102780;1260;137983;-75
2023/06/12 05:41:13;;;;;;;7.60;3.30;;;;;;;19.73;41.50;100701.92;102786;1256;110789;-76
2023/06/12 05:43:41;;;;;;;8.50;3.20;;;;;;;20.11;41.47;100704.25;102979;1258;107601;-74
2023/06/12 05:46:10;;;;;;;5.70;3.20;;;;;;;20.63;41.21;100701.22;103023;1260;97802;-75
2023/06/12 05:48:37;;;;;;;6.70;2.70;;;;;;;21.18;40.60;100696.25;102966;1258;107714;-76
2023/06/12 05:51:07;;;;;;;10.70;2.90;;;;;;;21.82;40.13;100693.48;102839;1257;138162;-83
2023/06/12 05:53:36;;;;;;;19.00;3.50;;;;;;;22.51;38.81;100694.83;103117;1257;110884;-77
2023/06/12 05:56:04;;;;;;;12.40;3.30;;;;;;;23.21;38.10;100691.98;102790;1260;138121;-77
2023/06/12 05:58:35;;;;;;;10.60;3.30;;;;;;;24.30;37.27;100693.38;103007;1256;97817;-77
2023/06/12 06:01:02;;;;;;;17.20;2.90;;;;;;;26.05;35.68;100687.66;103048;1259;108516;-78
2023/06/12 06:03:45;;;;;;;7.00;2.60;;;;;;;28.05;33.45;100683.12;102920;1255;138533;-79
2023/06/12 06:06:14;;;;;;;12.10;2.20;;;;;;;30.02;31.52;100675.70;102961;1258;110607;-77
2023/06/12 06:08:42;;;;;;;25.60;3.90;;;;;;;31.91;29.34;100674.24;102807;1257;137988;-87
2023/06/12 06:11:09;;;;;;;14.30;3.10;;;;;;;33.43;27.39;100669.07;102882;1260;97721;-66
2023/06/12 06:13:37;;;;;;;10.80;2.70;;;;;;;34.90;26.11;100670.46;103677;1256;100062;-67
2023/06/12 06:16:05;;;;;;;12.90;2.60;;;;;;;36.25;24.65;100670.15;104518;1256;96006;-69
2023/06/12 06:18:37;;;;;;;12.80;2.80;;;;;;;37.46;23.23;100665.71;104100;1257;102147;-67
2023/06/12 06:21:04;;;;;;;5.00;2.10;;;;;;;38.46;21.81;100668.27;103374;1256;139216;-67
2023/06/12 06:23:34;;;;;;;8.70;2.10;;;;;;;39.12;20.39;100664.94;103008;1260;97819;-67
2023/06/12 06:26:05;;;;;;;10.30;2.20;;;;;;;39.63;19.53;100666.02;103257;1256;137960;-67
2023/06/12 06:28:33;;;;;;;11.10;2.10;;;;;;;40.14;19.26;100665.39;103407;1255;97833;-67
2023/06/12 06:31:00;;;;;;;10.10;2.20;;;;;;;40.84;18.78;100667.20;103902;1255;104417;-67
2023/06/12 06:33:28;;;;;;;7.70;2.20;;;;;;;41.66;18.06;100661.90;103078;1256;138008;-66
2023/06/12 06:35:55;;;;;;;13.80;2.30;;;;;;;42.23;17.17;100664.66;103243;1258;97882;-66
2023/06/12 06:38:24;;;;;;;4.60;1.70;;;;;;;42.35;15.06;100664.21;103082;1256;138195;-66
2023/06/12 06:40:52;;;;;;;5.40;2.00;;;;;;;41.74;14.30;100665.14;103104;1256;97884;-66
2023/06/12 06:43:20;;;;;;;10.10;1.80;;;;;;;41.39;15.19;100672.09;104232;1255;104383;-66
2023/06/12 06:45:50;;;;;;;9.30;2.00;;;;;;;41.48;15.29;100669.70;103284;1256;138176;-66
2023/06/12 06:48:18;;;;;;;11.90;2.10;;;;;;;41.77;15.28;100672.88;103685;1256;97874;-67
2023/06/12 06:50:47;;;;;;;17.20;2.50;;;;;;;42.17;14.57;100671.30;103033;1260;137901;-66
2023/06/12 06:53:14;;;;;;;4.90;1.90;;;;;;;42.15;13.76;100666.38;103622;1255;97806;-67
2023/06/12 06:55:44;;;;;;;5.60;1.80;;;;;;;41.55;13.16;100670.99;104038;1256;103917;-67
2023/06/12 06:58:12;;;;;;;11.50;2.00;;;;;;;41.00;13.50;100677.92;103202;1256;100962;-66
2023/06/12 07:00:39;;;;;;;7.50;1.50;;;;;;;40.79;14.03;100673.83;103098;1256;97828;-68
2023/06/12 07:03:08;;;;;;;10.50;2.10;;;;;;;40.81;13.91;100675.62;103638;1255;137674;-68
2023/06/12 07:05:36;;;;;;;13.40;1.70;;;;;;;41.00;14.05;100672.41;103264;1256;97906;-72
2023/06/12 07:08:04;;;;;;;4.60;1.70;;;;;;;41.11;13.45;100670.89;102857;1256;139505;-63
2023/06/12 07:10:34;;;;;;;5.80;1.60;;;;;;;40.55;12.87;100669.45;102982;1260;99893;-71
2023/06/12 07:13:02;;;;;;;6.70;2.00;;;;;;;39.95;13.24;100668.98;103066;1256;97951;-72
2023/06/12 07:15:39;;;;;;;8.00;1.70;;;;;;;39.63;13.23;100663.73;102925;1256;137850;-72
2023/06/12 07:18:07;;;;;;;5.40;1.40;;;;;;;39.22;12.73;100662.42;103217;1256;97833;-71
2023/06/12 07:20:34;;;;;;;10.90;1.70;;;;;;;38.30;12.09;100660.70;103898;1255;137504;-69
2023/06/12 07:23:03;;;;;;;29.80;2.30;;;;;;;37.25;12.26;100656.20;103344;1259;99124;-71
2023/06/12 07:25:30;;;;;;;14.30;2.30;;;;;;;36.87;13.30;100663.55;103166;1258;138528;-71
2023/06/12 07:27:59;;;;;;;11.30;1.90;;;;;;;37.24;13.94;100659.71;103245;1258;97936;-71
2023/06/12 07:30:27;;;;;;;10.50;2.30;;;;;;;37.87;13.72;100654.18;104153;1256;95940;-72
2023/06/12 07:32:55;;;;;;;7.90;1.90;;;;;;;38.36;13.21;100659.38;103098;1256;138421;-70
2023/06/12 07:35:22;;;;;;;13.40;3.80;;;;;;;38.60;12.96;100655.85;102977;1256;108104;-71
2023/06/12 07:37:50;;;;;;;5.30;1.40;;;;;;;38.94;12.83;100652.64;103506;1256;138025;-70
2023/06/12 07:40:18;;;;;;;8.20;1.70;;;;;;;38.67;11.71;100658.04;103158;1260;100057;-70
2023/06/12 07:42:46;;;;;;;5.10;1.60;;;;;;;38.06;11.86;100656.72;103130;1256;98576;-70
2023/06/12 07:45:13;;;;;;;6.50;1.60;;;;;;;37.64;11.62;100653.08;103271;1260;102030;-69
2023/06/12 07:47:43;;;;;;;3.40;1.50;;;;;;;36.97;11.79;100658.23;103308;1260;100365;-69
2023/06/12 07:50:12;;;;;;;8.70;1.80;;;;;;;36.41;12.28;100655.84;103042;1256;138167;-70
2023/06/12 07:52:39;;;;;;;3.10;1.30;;;;;;;35.99;12.30;100663.36;103462;1255;100184;-70
2023/06/12 07:55:09;;;;;;;9.00;1.90;;;;;;;35.94;12.86;100660.05;103128;1260;138033;-72
2023/06/12 07:57:37;;;;;;;3.90;1.30;;;;;;;36.11;12.57;100659.08;103490;1255;103752;-72
2023/06/12 08:00:07;;;;;;;6.00;2.40;;;;;;;36.05;12.73;100660.98;103164;1256;99543;-70
2023/06/12 08:02:46;;;;;;;4.50;1.70;;;;;;;36.28;12.97;100648.59;103035;1256;138537;-70
2023/06/12 08:05:14;;;;;;;6.40;1.50;;;;;;;36.47;12.48;100646.58;103032;1260;100134;-72
2023/06/12 08:07:46;;;;;;;5.20;2.10;;;;;;;36.25;12.79;100642.73;103088;1256;139542;-72
2023/06/12 08:10:14;;;;;;;10.60;5.60;;;;;;;36.28;13.24;100640.37;103154;1256;103815;-72
2023/06/12 08:12:42;;;;;;;7.00;1.90;;;;;;;36.44;12.43;100645.36;103066;1259;99409;-72
2023/06/12 08:15:12;;;;;;;11.30;3.90;;;;;;;36.29;12.25;100645.80;102963;1256;139129;-72
2023/06/12 08:17:41;;;;;;;4.90;2.20;;;;;;;36.20;12.56;100641.77;103353;1256;99327;-71
2023/06/12 08:20:12;;;;;;;11.20;2.70;;;;;;;36.35;12.57;100638.66;103369;1256;137683;-71
2023/06/12 08:22:41;;;;;;;7.10;2.00;;;;;;;36.51;12.49;100641.36;103583;1258;103839;-71
2023/06/12 08:25:10;;;;;;;6.80;1.90;;;;;;;36.43;11.76;100643.39;103442;1255;138566;-72
2023/06/12 08:27:38;;;;;;;8.10;2.10;;;;;;;35.91;11.42;100636.93;103799;1259;97054;-70
2023/06/12 08:30:07;;;;;;;7.10;1.70;;;;;;;34.94;11.75;100628.38;103132;1256;99325;-70
2023/06/12 08:32:35;;;;;;;7.70;1.60;;;;;;;34.32;12.47;100637.30;102823;1256;137687;-71
2023/06/12 08:35:04;;;;;;;5.60;1.90;;;;;;;34.13;13.28;100638.98;103206;1256;103828;-72
2023/06/12 08:37:34;;;;;;;8.00;2.30;;;;;;;34.13;13.45;100636.04;103047;1256;137861;-72
2023/06/12 08:40:01;;;;;;;6.90;2.20;;;;;;;34.23;13.34;100638.00;103840;1256;97111;-70
2023/06/12 08:42:29;;;;;;;3.80;1.70;;;;;;;34.50;13.52;100636.46;103115;1260;100190;-71
2023/06/12 08:45:03;;;;;;;10.70;2.30;;;;;;;34.73;13.55;100631.98;103138;1259;97775;-72
2023/06/12 08:47:49;;;;;;;10.60;3.20;;;;;;;35.13;13.73;100626.98;103202;1256;103457;-71
2023/06/12 08:50:18;;;;;;;6.60;2.10;;;;;;;35.42;13.16;100624.86;103042;1260;138053;-72
2023/06/12 08:52:47;;;;;;;6.20;2.30;;;;;;;35.42;13.32;100629.04;103323;1256;97788;-69
2023/06/12 08:55:15;;;;;;;4.70;2.20;;;;;;;35.43;12.90;100621.07;103085;1256;137959;-72
2023/06/12 08:57:43;;;;;;;10.70;1.90;;;;;;;35.15;12.85;100623.82;103169;1256;97882;-71
2023/06/12 09:00:13;;;;;;;3.40;1.70;;;;;;;34.98;13.24;100626.64;103225;1255;103341;-70
2023/06/12 09:02:44;;;;;;;6.10;2.10;;;;;;;34.81;13.22;100632.81;103134;1256;137955;-72
2023/06/12 09:05:17;;;;;;;3.10;1.60;;;;;;;34.59;13.51;100631.89;103299;1257;97854;-72
2023/06/12 09:07:47;;;;;;;6.20;1.80;;;;;;;34.49;13.37;100632.73;102955;1260;137879;-70
2023/06/12 09:10:15;;;;;;;2.90;1.80;;;;;;;33.85;12.85;100629.59;103061;1256;97762;-71
2023/06/12 09:12:43;;;;;;;6.90;2.30;;;;;;;33.05;13.59;100626.54;103026;1256;137921;-71
2023/06/12 09:15:16;;;;;;;5.30;1.90;;;;;;;32.69;13.85;100634.75;103062;1260;109283;-71
2023/06/12 09:17:46;;;;;;;7.20;1.80;;;;;;;32.35;14.24;100633.79;103120;1255;97968;-71
2023/06/12 09:20:22;;;;;;;5.10;2.10;;;;;;;32.05;14.78;100631.27;103681;1255;137983;-72
2023/06/12 09:23:08;;;;;;;6.40;2.90;;;;;;;32.17;15.47;100628.17;103160;1258;97891;-72
2023/06/12 09:25:39;;;;;;;4.80;1.60;;;;;;;32.52;15.29;100625.94;103042;1259;137628;-71
2023/06/12 09:28:09;;;;;;;10.90;2.00;;;;;;;32.65;14.32;100633.23;103102;1256;107913;-72
2023/06/12 09:30:41;;;;;;;5.80;1.60;;;;;;;32.48;14.90;100629.40;102857;1255;138150;-71
2023/06/12 09:33:08;;;;;;;3.60;1.50;;;;;;;32.42;14.83;100626.45;103120;1259;109227;-71
2023/06/12 09:35:52;;;;;;;7.50;2.60;;;;;;;32.46;14.97;100625.84;103189;1260;97878;-71
2023/06/12 09:38:19;;;;;;;8.80;3.20;;;;;;;32.49;15.46;100626.94;102935;1260;137904;-72
2023/06/12 09:40:54;;;;;;;8.60;2.30;;;;;;;32.77;15.80;100618.41;102940;1256;106941;-72
2023/06/12 09:43:22;;;;;;;2.50;1.90;;;;;;;32.98;15.53;100616.34;102889;1255;138219;-69
2023/06/12 09:45:51;;;;;;;36.80;12.10;;;;;;;33.09;15.69;100603.66;103029;1256;101433;-72
2023/06/12 09:48:19;;;;;;;14.20;3.70;;;;;;;33.17;15.24;100596.73;103254;1256;97796;-70
2023/06/12 09:50:47;;;;;;;6.40;2.10;;;;;;;33.22;14.75;100606.00;103045;1256;139443;-71
2023/06/12 09:53:16;;;;;;;8.30;2.00;;;;;;;32.88;14.53;100607.83;103040;1255;107728;-73
2023/06/12 09:55:45;;;;;;;4.20;2.00;;;;;;;32.26;14.55;100612.96;102993;1256;137841;-70
2023/06/12 09:58:15;;;;;;;5.60;1.70;;;;;;;31.11;15.56;100615.42;103013;1256;107362;-69
2023/06/12 10:00:43;;;;;;;9.00;2.10;;;;;;;30.88;16.41;100606.59;102998;1256;137991;-68
2023/06/12 10:03:13;;;;;;;10.40;2.30;;;;;;;30.94;16.58;100606.74;103021;1256;240516;-68
2023/06/12 10:05:44;;;;;;;7.40;2.70;;;;;;;30.95;16.42;100602.16;103816;1255;107727;-67
2023/06/12 10:08:12;;;;;;;8.00;1.90;;;;;;;30.75;16.62;100596.16;103050;1256;137979;-69
2023/06/12 10:10:42;;;;;;;6.20;2.20;;;;;;;30.38;16.78;100596.30;103173;1256;108599;-68
2023/06/12 10:13:10;;;;;;;5.30;2.30;;;;;;;30.31;17.09;100597.64;103007;1256;138025;-69
2023/06/12 10:15:38;;;;;;;5.60;2.10;;;;;;;30.40;16.85;100605.95;103201;1256;111235;-68
2023/06/12 10:18:08;;;;;;;8.60;2.60;;;;;;;30.39;16.95;100604.77;103072;1257;108066;-69
2023/06/12 10:20:37;;;;;;;7.70;2.00;;;;;;;30.46;17.01;100600.08;104064;1256;137967;-69
2023/06/12 10:23:06;;;;;;;6.30;2.50;;;;;;;30.24;16.84;100599.83;103153;1259;108261;-69
2023/06/12 10:25:34;;;;;;;7.50;2.20;;;;;;;29.71;17.08;100595.86;102996;1256;137911;-69
2023/06/12 10:28:02;;;;;;;5.50;2.30;;;;;;;29.18;17.20;100593.41;103168;1256;111138;-69
2023/06/12 10:30:30;;;;;;;3.90;1.70;;;;;;;28.95;17.48;100587.25;103127;1260;107670;-70
2023/06/12 10:33:13;;;;;;;10.30;3.50;;;;;;;29.07;17.68;100579.86;103258;1256;97804;-71
2023/06/12 10:35:41;;;;;;;6.10;2.20;;;;;;;29.21;17.65;100574.98;104482;1260;106817;-71
2023/06/12 10:38:13;;;;;;;12.60;2.30;;;;;;;29.08;17.58;100584.48;102972;1256;137740;-70
2023/06/12 10:40:40;;;;;;;9.50;3.90;;;;;;;28.82;17.95;100581.64;103560;1256;112229;-71
2023/06/12 10:43:21;;;;;;;7.20;2.70;;;;;;;28.79;18.28;100584.92;102889;1261;137848;-69
2023/06/12 10:45:58;;;;;;;7.00;2.80;;;;;;;28.97;18.19;100579.23;103113;1256;97894;-70
2023/06/12 10:48:27;;;;;;;4.70;2.10;;;;;;;29.01;18.23;100575.86;103851;1256;109115;-69
2023/06/12 10:50:57;;;;;;;3.80;1.90;;;;;;;28.69;17.55;100576.73;103239;1256;97804;-69
2023/06/12 10:53:27;;;;;;;3.70;2.20;;;;;;;28.13;17.70;100579.87;103490;1256;110621;-69
2023/06/12 10:56:05;;;;;;;7.30;2.70;;;;;;;27.79;18.33;100579.52;103006;1260;137991;-69
2023/06/12 10:58:37;;;;;;;17.00;3.40;;;;;;;27.70;18.99;100572.42;103563;1255;97827;-70
2023/06/12 11:01:10;;;;;;;7.60;2.50;;;;;;;27.88;19.17;100569.23;103035;1256;137960;-70
2023/06/12 11:03:42;;;;;;;15.00;4.90;;;;;;;27.94;18.98;100573.92;103545;1255;97807;-70
2023/06/12 11:06:15;;;;;;;4.40;2.00;;;;;;;28.00;18.73;100568.71;103256;1256;112055;-70
2023/06/12 11:08:45;;;;;;;8.70;2.50;;;;;;;27.95;18.51;100566.52;103198;1256;138035;-72
2023/06/12 11:11:14;;;;;;;6.10;2.30;;;;;;;27.74;18.50;100566.32;103064;1260;97786;-71
2023/06/12 11:13:43;;;;;;;7.30;2.20;;;;;;;27.24;18.28;100562.92;102962;1255;139008;-70
2023/06/12 11:16:15;;;;;;;7.90;2.00;;;;;;;26.76;19.11;100561.63;103216;1256;97804;-72
2023/06/12 11:18:43;;;;;;;5.40;2.20;;;;;;;26.65;18.89;100554.02;103830;1255;139397;-70